Time;durP1;ratioP1;P1;durP2;ratioP2;P2;SDS_P1;SDS_P2;PMS_P1;PMS_P2;Temp;Humidity;BMP_temperature;BMP_pressure;BME280_temperature;BME280_humidity;BME280_pressure;Samples;Min_cycle;Max_cycle;Signal;HPM_P1;HPM_P2
2021/04/09 04:11:49;;;;;;;1.30;1.30;;;4.10;94.30;;;;;;5282440;23;20229;-80
2021/04/09 04:14:16;;;;;;;1.33;1.33;;;4.10;94.10;;;;;;4941204;29;20265;-79
2021/04/09 04:16:44;;;;;;;1.17;1.17;;;;;;;;;;4939587;29;20202;-79
2021/04/09 04:19:13;;;;;;;1.20;1.20;;;4.10;93.80;;;;;;4937419;29;20202;-80
2021/04/09 04:21:40;;;;;;;1.17;1.17;;;;;;;;;;4925578;29;20703;-79
2021/04/09 04:24:08;;;;;;;1.10;1.10;;;4.20;93.80;;;;;;4918889;29;20211;-79
2021/04/09 04:26:35;;;;;;;1.30;1.30;;;4.20;93.80;;;;;;4919281;29;20210;-79
2021/04/09 04:29:03;;;;;;;1.23;1.23;;;4.20;93.80;;;;;;4920069;29;20240;-79
2021/04/09 04:31:31;;;;;;;1.37;1.37;;;;;;;;;;4920286;29;20233;-79
2021/04/09 04:33:58;;;;;;;1.30;1.30;;;;;;;;;;4920317;29;20234;-80
2021/04/09 04:36:26;;;;;;;1.40;1.40;;;;;;;;;;4920414;29;20543;-80
2021/04/09 04:38:53;;;;;;;1.20;1.20;;;4.20;93.20;;;;;;4920326;29;20218;-80
2021/04/09 04:41:20;;;;;;;1.30;1.30;;;4.30;93.50;;;;;;4919690;29;20246;-80
2021/04/09 04:43:47;;;;;;;1.00;1.00;;;;;;;;;;4919205;29;20206;-80
2021/04/09 04:46:15;;;;;;;1.40;1.40;;;4.40;93.00;;;;;;4918088;29;20211;-80
2021/04/09 04:48:43;;;;;;;1.33;1.33;;;;;;;;;;4917506;29;20207;-79
2021/04/09 04:51:10;;;;;;;1.30;1.30;;;;;;;;;;4917253;29;20227;-78
2021/04/09 04:53:38;;;;;;;1.40;1.40;;;;;;;;;;4914454;29;20668;-78
2021/04/09 04:56:05;;;;;;;1.13;1.13;;;;;;;;;;4917105;29;20207;-78
2021/04/09 04:58:33;;;;;;;1.07;1.07;;;;;;;;;;4917490;29;20218;-78
2021/04/09 05:01:00;;;;;;;1.30;1.30;;;;;;;;;;4916439;29;20696;-78
2021/04/09 05:03:28;;;;;;;1.40;1.40;;;4.60;92.90;;;;;;4916878;29;20266;-79
2021/04/09 05:05:54;;;;;;;1.30;1.30;;;4.60;92.90;;;;;;4914739;29;20605;-79
2021/04/09 05:08:22;;;;;;;1.23;1.23;;;4.70;92.90;;;;;;4916109;29;20313;-79
2021/04/09 05:10:49;;;;;;;1.20;1.20;;;;;;;;;;4916579;29;20226;-76
2021/04/09 05:13:16;;;;;;;1.40;1.40;;;4.70;92.50;;;;;;4916845;29;20213;-78
2021/04/09 05:15:44;;;;;;;1.47;1.47;;;;;;;;;;4919267;29;20227;-78
2021/04/09 05:18:11;;;;;;;1.27;1.27;;;;;;;;;;4919952;29;20278;-77
2021/04/09 05:20:39;;;;;;;1.30;1.30;;;4.90;92.20;;;;;;4918256;29;20287;-77
2021/04/09 05:23:06;;;;;;;1.07;1.07;;;;;;;;;;4920606;29;20210;-79
2021/04/09 05:25:33;;;;;;;1.43;1.43;;;5.00;92.00;;;;;;4920349;29;20209;-79
2021/04/09 05:28:00;;;;;;;1.50;1.50;;;5.10;92.20;;;;;;4920443;29;20241;-79
2021/04/09 05:30:28;;;;;;;1.20;1.20;;;5.20;99.90;;;;;;4919831;29;20211;-78
2021/04/09 05:32:54;;;;;;;1.20;1.20;;;5.20;92.40;;;;;;4916918;29;20202;-78
2021/04/09 05:35:25;;;;;;;1.20;1.20;;;5.40;92.70;;;;;;4917195;29;20207;-78
2021/04/09 05:37:53;;;;;;;1.30;1.30;;;5.50;91.60;;;;;;4917442;29;20217;-79
2021/04/09 05:40:21;;;;;;;1.13;1.13;;;5.70;99.90;;;;;;4917402;29;20210;-78
2021/04/09 05:42:55;;;;;;;1.40;1.40;;;5.70;91.20;;;;;;4917273;29;20242;-80
2021/04/09 05:45:24;;;;;;;1.30;1.30;;;5.80;91.60;;;;;;4916809;29;20210;-79
2021/04/09 05:47:52;;;;;;;1.20;1.20;;;5.80;90.90;;;;;;4916869;29;20261;-79
2021/04/09 05:50:19;;;;;;;1.17;1.17;;;6.00;99.90;;;;;;4915034;29;20688;-80
2021/04/09 05:52:47;;;;;;;1.30;1.30;;;6.00;90.70;;;;;;4915011;29;20199;-80
2021/04/09 05:55:16;;;;;;;1.20;1.20;;;6.00;91.10;;;;;;4914815;29;20203;-79
2021/04/09 05:57:43;;;;;;;1.20;1.20;;;;;;;;;;4915057;29;20202;-79
2021/04/09 06:00:12;;;;;;;1.23;1.23;;;6.10;90.00;;;;;;4916543;29;20610;-79
2021/04/09 06:02:39;;;;;;;1.40;1.40;;;6.10;90.30;;;;;;4935170;23;20290;-78
2021/04/09 06:05:07;;;;;;;1.20;1.20;;;6.20;90.40;;;;;;4913459;29;20214;-75
2021/04/09 06:07:34;;;;;;;1.20;1.20;;;6.30;90.20;;;;;;4915010;29;20202;-76
2021/04/09 06:10:02;;;;;;;1.33;1.33;;;6.30;90.10;;;;;;4915233;29;20285;-78
2021/04/09 06:12:29;;;;;;;1.20;1.20;;;6.40;89.90;;;;;;4899804;29;20230;-76
2021/04/09 06:14:56;;;;;;;1.13;1.13;;;6.40;90.00;;;;;;4896033;29;20267;-76
2021/04/09 06:17:23;;;;;;;1.10;1.10;;;6.50;89.80;;;;;;4896206;29;20668;-77
2021/04/09 06:19:50;;;;;;;1.23;1.23;;;6.60;90.10;;;;;;4896400;29;20211;-76
2021/04/09 06:22:18;;;;;;;1.10;1.10;;;6.60;89.10;;;;;;4895930;29;20641;-76
2021/04/09 06:24:45;;;;;;;1.07;1.07;;;6.70;89.40;;;;;;4896550;29;20267;-76
2021/04/09 06:27:12;;;;;;;1.03;1.03;;;7.00;89.40;;;;;;4896341;29;20212;-76
2021/04/09 06:29:39;;;;;;;1.00;1.00;;;7.10;88.70;;;;;;4896516;29;20214;-76
2021/04/09 06:32:08;;;;;;;0.90;0.90;;;7.10;88.20;;;;;;4896199;29;20231;-76
2021/04/09 06:34:35;;;;;;;1.10;1.10;;;7.30;88.60;;;;;;4896272;29;20288;-76
2021/04/09 06:37:02;;;;;;;0.93;0.93;;;7.40;87.20;;;;;;4895990;29;20231;-76
2021/04/09 06:39:29;;;;;;;1.30;1.30;;;7.60;87.90;;;;;;4896293;29;20204;-77
2021/04/09 06:41:56;;;;;;;1.00;1.00;;;7.70;87.00;;;;;;4896480;29;20282;-77
2021/04/09 06:44:24;;;;;;;0.90;0.90;;;7.70;85.80;;;;;;4896408;29;20218;-77
2021/04/09 06:46:51;;;;;;;1.00;1.00;;;7.90;85.60;;;;;;4896352;29;20260;-77
2021/04/09 06:49:18;;;;;;;1.17;1.17;;;8.00;85.80;;;;;;4896102;29;20290;-76
2021/04/09 06:51:46;;;;;;;1.00;1.00;;;8.10;84.80;;;;;;4896011;29;20302;-76
2021/04/09 06:54:15;;;;;;;0.90;0.90;;;8.20;84.00;;;;;;4895843;29;20211;-77
2021/04/09 06:56:43;;;;;;;1.00;1.00;;;8.40;84.50;;;;;;4896083;29;20218;-76
2021/04/09 06:59:15;;;;;;;0.90;0.90;;;8.70;82.70;;;;;;4896034;29;20211;-76
2021/04/09 07:01:45;;;;;;;1.08;1.08;;;8.70;81.60;;;;;;4895970;29;20299;-77
2021/04/09 07:04:13;;;;;;;0.88;0.88;;;8.80;80.50;;;;;;4895934;29;20215;-76
2021/04/09 07:06:40;;;;;;;1.00;1.00;;;9.10;80.70;;;;;;4896137;29;20215;-77
2021/04/09 07:09:07;;;;;;;1.00;1.00;;;9.30;79.80;;;;;;4896109;29;20629;-75
2021/04/09 07:11:37;;;;;;;0.90;0.90;;;9.20;79.30;;;;;;4896892;29;20234;-75
2021/04/09 07:14:04;;;;;;;1.00;1.00;;;9.20;79.50;;;;;;4897060;29;20216;-77
2021/04/09 07:16:33;;;;;;;0.85;0.85;;;9.10;79.40;;;;;;4899557;29;20239;-77
2021/04/09 07:19:04;;;;;;;0.90;0.90;;;9.30;79.40;;;;;;4899776;29;20204;-76
2021/04/09 07:21:33;;;;;;;1.10;1.10;;;9.40;79.70;;;;;;4899600;29;20235;-77
2021/04/09 07:24:20;;;;;;;0.90;0.90;;;9.40;78.80;;;;;;4899587;29;20574;-77
2021/04/09 07:26:49;;;;;;;0.90;0.90;;;9.40;79.10;;;;;;4899123;29;20210;-77
2021/04/09 07:29:39;;;;;;;0.90;0.90;;;9.40;78.50;;;;;;4899080;29;20212;-77
2021/04/09 07:32:32;;;;;;;0.90;0.90;;;9.20;78.20;;;;;;4899290;29;20227;-76
2021/04/09 07:35:03;;;;;;;0.90;0.90;;;9.10;77.80;;;;;;4898799;29;20673;-76
2021/04/09 07:37:32;;;;;;;0.93;0.93;;;9.20;78.30;;;;;;4899041;29;20694;-76
2021/04/09 07:40:01;;;;;;;1.17;1.17;;;9.20;77.60;;;;;;4898934;29;20219;-76
2021/04/09 07:42:33;;;;;;;1.10;1.10;;;9.20;78.60;;;;;;4898888;29;20231;-76
2021/04/09 07:45:02;;;;;;;1.02;1.02;;;9.10;77.30;;;;;;4898852;29;20283;-76
2021/04/09 07:47:29;;;;;;;1.00;1.00;;;9.20;78.90;;;;;;4899338;29;20199;-77
2021/04/09 07:50:01;;;;;;;0.85;0.85;;;9.30;78.20;;;;;;4898850;29;20207;-77
2021/04/09 07:52:39;;;;;;;0.95;0.95;;;9.30;78.10;;;;;;4898788;29;20282;-77
2021/04/09 07:55:18;;;;;;;0.88;0.88;;;9.30;77.30;;;;;;4899537;29;20644;-77
2021/04/09 07:57:46;;;;;;;0.98;0.98;;;9.30;77.50;;;;;;4902184;29;20203;-78
2021/04/09 08:00:18;;;;;;;0.90;0.90;;;9.40;77.70;;;;;;4903902;29;20256;-78
2021/04/09 08:02:45;;;;;;;1.05;1.05;;;9.50;77.00;;;;;;4902196;29;20231;-78
2021/04/09 08:05:14;;;;;;;1.20;1.20;;;9.50;76.30;;;;;;4902160;29;20408;-78
2021/04/09 08:07:43;;;;;;;0.98;0.98;;;9.90;81.90;;;;;;4902244;29;20218;-78
2021/04/09 08:10:13;;;;;;;1.10;1.10;;;9.90;85.00;;;;;;4902935;29;20219;-77
2021/04/09 08:12:41;;;;;;;1.00;1.00;;;9.90;81.60;;;;;;4920533;29;20227;-77
2021/04/09 08:15:14;;;;;;;0.90;0.90;;;9.90;74.10;;;;;;4909588;29;20207;-78
2021/04/09 08:17:41;;;;;;;1.15;1.15;;;9.90;74.70;;;;;;4902932;29;20211;-77
2021/04/09 08:20:14;;;;;;;0.90;0.90;;;10.00;75.30;;;;;;4899970;29;20208;-78
2021/04/09 08:22:42;;;;;;;1.10;1.10;;;10.30;74.80;;;;;;4902448;29;20267;-77
2021/04/09 08:25:10;;;;;;;1.00;1.00;;;10.30;92.70;;;;;;4901261;29;20728;-78
2021/04/09 08:27:38;;;;;;;1.00;1.00;;;10.30;73.50;;;;;;4902515;29;20236;-79
2021/04/09 08:30:06;;;;;;;0.80;0.80;;;10.30;73.20;;;;;;4902206;29;20222;-78
2021/04/09 08:32:33;;;;;;;0.90;0.90;;;10.40;73.50;;;;;;4902344;29;20656;-77
2021/04/09 08:35:01;;;;;;;0.80;0.80;;;10.50;73.00;;;;;;4901537;29;20262;-78
2021/04/09 08:37:28;;;;;;;0.95;0.95;;;10.60;72.70;;;;;;4902614;29;20238;-78
2021/04/09 08:39:56;;;;;;;0.88;0.88;;;10.70;72.30;;;;;;4901356;29;20207;-78
2021/04/09 08:42:24;;;;;;;0.95;0.95;;;10.80;71.00;;;;;;4901390;29;20264;-78
2021/04/09 08:44:51;;;;;;;0.70;0.70;;;11.00;71.40;;;;;;4900197;29;20211;-77
2021/04/09 08:47:20;;;;;;;0.80;0.80;;;10.90;70.80;;;;;;4899265;29;20210;-79
2021/04/09 08:49:48;;;;;;;0.85;0.85;;;11.30;90.70;;;;;;4899023;29;20207;-77
2021/04/09 08:52:16;;;;;;;0.70;0.70;;;11.00;90.80;;;;;;4899070;29;20231;-78
2021/04/09 08:54:50;;;;;;;0.70;0.70;;;11.40;90.40;;;;;;4899407;29;20207;-78
2021/04/09 08:57:29;;;;;;;0.90;0.90;;;11.30;90.40;;;;;;4899356;29;20235;-77
2021/04/09 09:00:18;;;;;;;0.90;0.90;;;11.30;90.10;;;;;;4899742;29;20206;-76
2021/04/09 09:02:51;;;;;;;0.70;0.70;;;11.60;90.80;;;;;;4899349;29;20242;-78
2021/04/09 09:05:21;;;;;;;0.90;0.90;;;11.80;90.20;;;;;;4899426;29;20222;-77
2021/04/09 09:08:06;;;;;;;0.70;0.70;;;11.80;71.00;;;;;;4899234;29;20431;-78
2021/04/09 09:10:57;;;;;;;0.80;0.80;;;11.80;88.10;;;;;;4899210;29;20744;-77
2021/04/09 09:13:26;;;;;;;0.70;0.70;;;11.50;88.70;;;;;;4899356;29;20219;-76
2021/04/09 09:16:01;;;;;;;0.80;0.80;;;11.70;88.60;;;;;;4899845;29;20230;-78
2021/04/09 09:18:53;;;;;;;0.80;0.80;;;11.60;67.00;;;;;;4899402;29;20218;-78
2021/04/09 09:21:34;;;;;;;0.77;0.77;;;11.80;67.30;;;;;;4899535;29;20271;-77
2021/04/09 09:24:02;;;;;;;0.70;0.70;;;11.80;65.30;;;;;;4899324;29;20255;-78
2021/04/09 09:26:32;;;;;;;0.70;0.70;;;11.90;66.30;;;;;;4899095;29;20629;-78
2021/04/09 09:29:25;;;;;;;0.60;0.60;;;12.00;65.40;;;;;;4899054;29;20204;-77
2021/04/09 09:32:01;;;;;;;0.80;0.80;;;12.10;64.80;;;;;;4881118;29;20234;-78
2021/04/09 09:34:36;;;;;;;0.73;0.73;;;12.20;86.50;;;;;;4898389;29;20286;-78
2021/04/09 09:37:06;;;;;;;0.90;0.90;;;12.10;63.10;;;;;;4897807;29;20732;-79
2021/04/09 09:39:36;;;;;;;0.80;0.80;;;12.20;64.00;;;;;;4900513;29;20227;-78
2021/04/09 09:42:03;;;;;;;0.75;0.75;;;12.30;76.80;;;;;;4899900;29;20267;-77
2021/04/09 09:44:34;;;;;;;0.70;0.70;;;12.60;89.80;;;;;;4899896;29;20207;-77
2021/04/09 09:47:07;;;;;;;0.80;0.80;;;12.30;71.00;;;;;;4899116;29;20730;-78
2021/04/09 09:49:36;;;;;;;0.70;0.70;;;12.10;74.70;;;;;;4897361;29;20637;-77
2021/04/09 09:52:22;;;;;;;0.63;0.63;;;12.20;68.50;;;;;;4897173;29;20226;-79
2021/04/09 09:55:14;;;;;;;0.70;0.70;;;12.30;68.20;;;;;;4896598;29;20210;-78
2021/04/09 09:57:43;;;;;;;0.70;0.70;;;12.50;70.50;;;;;;4898478;29;20631;-77
2021/04/09 10:00:12;;;;;;;0.70;0.70;;;12.30;64.40;;;;;;4899963;29;20215;-78
2021/04/09 10:02:39;;;;;;;0.73;0.73;;;12.20;65.70;;;;;;4899312;29;20756;-77
2021/04/09 10:05:08;;;;;;;0.70;0.70;;;12.30;68.50;;;;;;4900358;29;20681;-78
2021/04/09 10:07:36;;;;;;;0.80;0.80;;;12.40;69.10;;;;;;4899951;29;20215;-78
2021/04/09 10:10:05;;;;;;;0.70;0.70;;;12.30;71.00;;;;;;4899614;29;20302;-78
2021/04/09 10:12:32;;;;;;;0.80;0.80;;;12.40;71.30;;;;;;4900048;29;20708;-77
2021/04/09 10:14:59;;;;;;;0.60;0.60;;;12.60;90.30;;;;;;4899676;29;20215;-78
2021/04/09 10:17:27;;;;;;;0.70;0.70;;;12.60;64.80;;;;;;4900986;29;20243;-78
2021/04/09 10:19:58;;;;;;;0.70;0.70;;;12.90;60.40;;;;;;4902096;29;20684;-77
2021/04/09 10:22:25;;;;;;;0.70;0.70;;;13.00;82.00;;;;;;4903581;29;20224;-78
2021/04/09 10:24:52;;;;;;;0.73;0.73;;;13.10;81.80;;;;;;4902453;29;20688;-77
2021/04/09 10:27:19;;;;;;;0.60;0.60;;;12.90;80.30;;;;;;4903864;29;20207;-78
2021/04/09 10:29:46;;;;;;;0.68;0.68;;;13.00;64.90;;;;;;4910578;29;20207;-77
2021/04/09 10:32:15;;;;;;;0.60;0.60;;;13.10;79.10;;;;;;4917423;29;20227;-77
2021/04/09 10:34:46;;;;;;;0.60;0.60;;;13.00;80.90;;;;;;4920838;29;20204;-76
2021/04/09 10:37:20;;;;;;;0.70;0.70;;;13.00;76.60;;;;;;4918995;29;20570;-77
2021/04/09 10:39:48;;;;;;;0.70;0.70;;;13.20;77.20;;;;;;4920734;29;20187;-76
2021/04/09 10:42:15;;;;;;;0.70;0.70;;;13.20;59.90;;;;;;4914752;29;20696;-78
2021/04/09 10:44:42;;;;;;;0.80;0.80;;;15.30;79.60;;;;;;4900017;29;20207;-77
2021/04/09 10:47:09;;;;;;;0.60;0.60;;;13.40;78.80;;;;;;4899995;29;20211;-78
2021/04/09 10:49:38;;;;;;;0.57;0.57;;;13.20;58.60;;;;;;4903111;29;20302;-77
2021/04/09 10:52:07;;;;;;;0.70;0.70;;;13.20;78.60;;;;;;4904105;29;20230;-78
2021/04/09 10:54:36;;;;;;;0.70;0.70;;;13.30;79.80;;;;;;4904191;29;20676;-78
2021/04/09 10:57:06;;;;;;;0.65;0.65;;;13.30;59.80;;;;;;4904314;29;20669;-78
2021/04/09 10:59:38;;;;;;;0.50;0.50;;;13.60;77.80;;;;;;4904002;29;20263;-78
2021/04/09 11:02:08;;;;;;;0.50;0.50;;;13.30;61.40;;;;;;4904189;29;20267;-77
2021/04/09 11:04:37;;;;;;;0.70;0.70;;;13.30;79.40;;;;;;4904542;29;20664;-78
2021/04/09 11:07:07;;;;;;;0.52;0.52;;;13.50;78.50;;;;;;4903948;29;20222;-79
2021/04/09 11:09:41;;;;;;;0.50;0.50;;;13.50;79.10;;;;;;4903416;29;20254;-78
2021/04/09 11:12:23;;;;;;;0.70;0.70;;;13.80;87.40;;;;;;4904137;29;20230;-78
2021/04/09 11:14:51;;;;;;;0.60;0.60;;;;;;;;;;4902958;29;20208;-77
2021/04/09 11:17:25;;;;;;;0.60;0.60;;;;;;;;;;4904064;29;20208;-78
2021/04/09 11:19:56;;;;;;;0.60;0.60;;;;;;;;;;4903462;29;20215;-78
2021/04/09 11:22:46;;;;;;;0.80;0.80;;;;;;;;;;4904313;29;20314;-78
2021/04/09 11:25:13;;;;;;;0.50;0.50;;;;;;;;;;4903208;29;20215;-78
2021/04/09 11:27:41;;;;;;;0.50;0.50;;;;;;;;;;4902681;29;20207;-77
2021/04/09 11:30:11;;;;;;;0.60;0.60;;;;;;;;;;4903278;29;20214;-78
2021/04/09 11:32:39;;;;;;;0.52;0.52;;;;;;;;;;4902272;29;20386;-77
2021/04/09 11:35:09;;;;;;;0.60;0.60;;;;;;;;;;4902953;29;20210;-77
2021/04/09 11:37:43;;;;;;;0.50;0.50;;;;;;;;;;4902918;29;20214;-77
2021/04/09 11:40:12;;;;;;;0.60;0.60;;;;;;;;;;4903035;29;20271;-78
2021/04/09 11:42:39;;;;;;;0.70;0.70;;;;;;;;;;4902644;29;20227;-78
2021/04/09 11:45:07;;;;;;;0.70;0.70;;;;;;;;;;4902781;29;20212;-77
2021/04/09 11:47:35;;;;;;;0.68;0.68;;;;;;;;;;4903019;29;20207;-77
2021/04/09 11:50:15;;;;;;;0.60;0.60;;;14.60;94.80;;;;;;4903377;29;20207;-78
2021/04/09 11:52:50;;;;;;;0.60;0.60;;;14.60;95.10;;;;;;4902493;29;20227;-78
2021/04/09 11:55:21;;;;;;;0.70;0.70;;;14.50;95.10;;;;;;4902636;29;20203;-78
2021/04/09 11:57:48;;;;;;;0.50;0.50;;;14.40;94.20;;;;;;4902699;29;20208;-77
2021/04/09 12:00:21;;;;;;;0.60;0.60;;;14.60;94.50;;;;;;4901160;29;20211;-77
2021/04/09 12:02:50;;;;;;;0.70;0.70;;;14.70;53.60;;;;;;4957997;23;20590;-78
2021/04/09 12:05:19;;;;;;;0.70;0.70;;;14.40;54.00;;;;;;4956505;29;20304;-78
2021/04/09 12:07:45;;;;;;;0.60;0.60;;;14.50;52.90;;;;;;4956715;29;20264;-79
2021/04/09 12:10:14;;;;;;;0.60;0.60;;;14.30;53.20;;;;;;4958470;29;20264;-79
2021/04/09 12:12:42;;;;;;;0.60;0.60;;;14.20;53.10;;;;;;4943675;28;20222;-80
2021/04/09 12:15:14;;;;;;;0.60;0.60;;;14.30;52.70;;;;;;4939517;29;20601;-80
2021/04/09 12:17:41;;;;;;;0.60;0.60;;;14.40;52.90;;;;;;4939730;29;20206;-80
2021/04/09 12:20:11;;;;;;;0.60;0.60;;;14.60;53.30;;;;;;4939177;29;20210;-79
2021/04/09 12:22:39;;;;;;;0.60;0.60;;;14.50;52.30;;;;;;4938561;29;20234;-80
2021/04/09 12:25:09;;;;;;;0.50;0.50;;;14.60;53.70;;;;;;4939068;29;20213;-79
2021/04/09 12:27:36;;;;;;;0.60;0.60;;;14.60;56.90;;;;;;4938857;29;20642;-78
2021/04/09 12:30:06;;;;;;;0.50;0.50;;;14.70;58.80;;;;;;4939984;29;20221;-80
2021/04/09 12:32:33;;;;;;;0.60;0.60;;;14.80;56.90;;;;;;4939349;29;20217;-80
2021/04/09 12:35:00;;;;;;;0.60;0.60;;;14.80;57.50;;;;;;4939497;29;20253;-80
2021/04/09 12:37:27;;;;;;;0.60;0.60;;;15.00;57.10;;;;;;4939795;29;20751;-79
2021/04/09 12:39:54;;;;;;;0.40;0.40;;;15.00;57.50;;;;;;4938681;29;20206;-80
2021/04/09 12:42:22;;;;;;;0.50;0.50;;;14.80;58.80;;;;;;4938599;29;20233;-81
2021/04/09 12:44:49;;;;;;;0.40;0.40;;;15.10;58.70;;;;;;4939584;29;20237;-81
2021/04/09 12:47:17;;;;;;;0.52;0.52;;;15.30;58.30;;;;;;4938878;29;20297;-81
2021/04/09 12:49:44;;;;;;;0.40;0.40;;;15.30;58.10;;;;;;4940520;29;20242;-80
2021/04/09 12:52:13;;;;;;;0.60;0.60;;;15.20;58.60;;;;;;4940796;29;20225;-80
2021/04/09 12:54:40;;;;;;;0.60;0.60;;;15.00;58.50;;;;;;4940697;29;20214;-80
2021/04/09 12:57:13;;;;;;;0.50;0.50;;;15.30;58.90;;;;;;4941507;29;20209;-79
2021/04/09 12:59:41;;;;;;;0.50;0.50;;;14.90;58.90;;;;;;4940613;29;20210;-80
2021/04/09 13:02:21;;;;;;;0.50;0.50;;;14.90;58.30;;;;;;4940134;29;20225;-79
2021/04/09 13:04:48;;;;;;;0.60;0.60;;;15.20;57.80;;;;;;4938281;29;20236;-80
2021/04/09 13:07:16;;;;;;;0.50;0.50;;;15.10;56.10;;;;;;4938434;29;20726;-79
2021/04/09 13:09:43;;;;;;;0.60;0.60;;;14.90;57.00;;;;;;4938833;29;20206;-80
2021/04/09 13:12:10;;;;;;;0.50;0.50;;;15.00;57.80;;;;;;4938470;29;20255;-79
2021/04/09 13:14:37;;;;;;;0.60;0.60;;;15.30;59.30;;;;;;4937092;29;20210;-79
2021/04/09 13:17:04;;;;;;;0.60;0.60;;;15.20;57.10;;;;;;4935288;29;20212;-79
2021/04/09 13:19:32;;;;;;;0.50;0.50;;;15.20;58.00;;;;;;4934432;29;20213;-78
2021/04/09 13:21:59;;;;;;;0.40;0.40;;;15.50;58.90;;;;;;4934724;29;20230;-78
2021/04/09 13:24:31;;;;;;;0.50;0.50;;;;;;;;;;4935319;29;20213;-79
2021/04/09 13:26:58;;;;;;;0.52;0.52;;;15.80;57.70;;;;;;4934945;29;20202;-78
2021/04/09 13:29:29;;;;;;;0.40;0.40;;;16.00;57.10;;;;;;4935079;29;20261;-79
2021/04/09 13:31:56;;;;;;;0.52;0.52;;;15.90;57.10;;;;;;4935006;29;20745;-79
2021/04/09 13:34:24;;;;;;;0.40;0.40;;;15.90;57.20;;;;;;4936304;29;20202;-79
2021/04/09 13:36:52;;;;;;;0.40;0.40;;;15.70;56.40;;;;;;4935519;29;20265;-80
2021/04/09 13:39:19;;;;;;;0.50;0.50;;;15.90;57.20;;;;;;4935582;29;20206;-79
2021/04/09 13:41:46;;;;;;;0.45;0.45;;;15.80;56.60;;;;;;4935968;29;20366;-78
2021/04/09 13:44:12;;;;;;;0.50;0.50;;;16.00;57.40;;;;;;4930848;29;20221;-79
2021/04/09 13:46:39;;;;;;;0.50;0.50;;;16.30;56.90;;;;;;4935614;29;20194;-79
2021/04/09 13:49:06;;;;;;;0.50;0.50;;;16.10;55.60;;;;;;4936558;29;20260;-80
2021/04/09 13:51:33;;;;;;;0.40;0.40;;;16.30;56.60;;;;;;4937409;29;20218;-80
2021/04/09 13:54:01;;;;;;;0.40;0.40;;;16.50;56.10;;;;;;4937212;29;20250;-80
2021/04/09 13:56:28;;;;;;;0.40;0.40;;;16.20;55.60;;;;;;4936641;29;20202;-81
2021/04/09 13:58:54;;;;;;;0.50;0.50;;;15.50;55.50;;;;;;4936768;29;20202;-80
2021/04/09 14:01:21;;;;;;;0.40;0.40;;;16.00;55.70;;;;;;4937604;29;20237;-82
2021/04/09 14:03:48;;;;;;;0.40;0.40;;;16.10;56.40;;;;;;4937863;29;20230;-81
2021/04/09 14:06:16;;;;;;;0.40;0.40;;;16.60;54.30;;;;;;4940749;29;20212;-80
2021/04/09 14:08:43;;;;;;;0.40;0.40;;;16.20;54.90;;;;;;4937911;29;20574;-78
2021/04/09 14:11:11;;;;;;;0.40;0.40;;;16.30;53.40;;;;;;4936768;29;20737;-79
2021/04/09 14:13:38;;;;;;;0.40;0.40;;;15.90;53.50;;;;;;4936939;29;20224;-78
2021/04/09 14:16:06;;;;;;;0.50;0.50;;;16.30;53.20;;;;;;4937029;29;20217;-79
2021/04/09 14:18:33;;;;;;;0.50;0.50;;;16.10;52.80;;;;;;4937188;29;20205;-81
2021/04/09 14:20:59;;;;;;;0.57;0.57;;;15.60;53.20;;;;;;4937880;29;20209;-79
2021/04/09 14:23:26;;;;;;;0.43;0.43;;;16.30;53.00;;;;;;4937166;29;20645;-82
2021/04/09 14:25:53;;;;;;;0.40;0.40;;;16.70;52.90;;;;;;4936813;29;20198;-80
2021/04/09 14:28:21;;;;;;;0.60;0.60;;;16.20;52.60;;;;;;4937000;29;20202;-81
2021/04/09 14:30:48;;;;;;;0.52;0.52;;;16.00;52.90;;;;;;4936909;29;20620;-80
2021/04/09 14:33:15;;;;;;;0.50;0.50;;;16.00;53.30;;;;;;4937132;29;20202;-79
2021/04/09 14:35:42;;;;;;;0.50;0.50;;;15.90;53.30;;;;;;4936532;29;20202;-79
2021/04/09 14:38:09;;;;;;;0.50;0.50;;;15.80;52.90;;;;;;4936598;29;20198;-80
2021/04/09 14:40:35;;;;;;;0.50;0.50;;;15.70;53.50;;;;;;4936237;29;20659;-79
2021/04/09 14:43:03;;;;;;;0.40;0.40;;;15.80;53.60;;;;;;4937524;29;20241;-80
2021/04/09 14:45:35;;;;;;;0.60;0.60;;;15.70;52.90;;;;;;4937894;29;20616;-79
2021/04/09 14:48:03;;;;;;;0.50;0.50;;;15.70;53.00;;;;;;4936703;29;20548;-79
2021/04/09 14:50:30;;;;;;;0.50;0.50;;;15.80;51.70;;;;;;4937414;29;20206;-80
2021/04/09 14:52:57;;;;;;;0.50;0.50;;;15.90;50.20;;;;;;4935508;29;20229;-82
2021/04/09 14:55:24;;;;;;;0.50;0.50;;;15.90;50.20;;;;;;4937825;29;20212;-78
2021/04/09 14:57:51;;;;;;;0.50;0.50;;;15.80;50.00;;;;;;4931168;29;20206;-78
2021/04/09 15:00:21;;;;;;;0.52;0.52;;;15.70;49.40;;;;;;4935978;29;20265;-79
2021/04/09 15:02:49;;;;;;;0.45;0.45;;;15.90;49.40;;;;;;4936360;29;20253;-81
2021/04/09 15:05:17;;;;;;;0.50;0.50;;;15.90;49.90;;;;;;4934498;29;20671;-81
2021/04/09 15:07:44;;;;;;;0.50;0.50;;;15.90;49.70;;;;;;4937028;29;20198;-79
2021/04/09 15:10:12;;;;;;;0.60;0.60;;;15.90;49.90;;;;;;4934703;29;20213;-79
2021/04/09 15:12:39;;;;;;;0.50;0.50;;;15.80;49.60;;;;;;4934744;29;20214;-78
2021/04/09 15:15:09;;;;;;;0.60;0.60;;;15.70;49.70;;;;;;4936102;29;20210;-78
2021/04/09 15:17:36;;;;;;;0.40;0.40;;;15.50;50.90;;;;;;4934427;29;20611;-80
2021/04/09 15:20:06;;;;;;;0.50;0.50;;;15.50;50.60;;;;;;4935053;29;20627;-82
2021/04/09 15:22:36;;;;;;;0.40;0.40;;;15.40;50.60;;;;;;4936474;29;20222;-80
2021/04/09 15:25:03;;;;;;;0.40;0.40;;;15.30;51.50;;;;;;4935831;29;20221;-80
2021/04/09 15:27:31;;;;;;;0.60;0.60;;;15.50;51.70;;;;;;4932972;29;20229;-78
2021/04/09 15:29:57;;;;;;;0.50;0.50;;;15.50;50.80;;;;;;4934573;29;20202;-78
2021/04/09 15:32:25;;;;;;;0.55;0.55;;;15.40;51.30;;;;;;4935376;29;20229;-78
2021/04/09 15:34:52;;;;;;;0.50;0.50;;;15.30;51.20;;;;;;4934533;29;20205;-78
2021/04/09 15:37:20;;;;;;;0.50;0.50;;;15.30;51.60;;;;;;4938372;29;20265;-78
2021/04/09 15:39:47;;;;;;;0.50;0.50;;;15.20;51.60;;;;;;4938222;29;20206;-78
2021/04/09 15:42:14;;;;;;;0.40;0.40;;;15.40;52.50;;;;;;4936097;29;20317;-79
2021/04/09 15:44:41;;;;;;;0.45;0.45;;;15.30;52.30;;;;;;4937019;29;20714;-79
2021/04/09 15:47:11;;;;;;;0.40;0.40;;;15.30;52.20;;;;;;4938366;29;20272;-79
2021/04/09 15:49:39;;;;;;;0.50;0.50;;;15.20;52.80;;;;;;4937103;29;20269;-79
2021/04/09 15:52:07;;;;;;;0.40;0.40;;;15.20;52.60;;;;;;4938757;29;20229;-78
2021/04/09 15:54:35;;;;;;;0.50;0.50;;;15.00;53.40;;;;;;4929997;29;20194;-77
2021/04/09 15:57:04;;;;;;;0.50;0.50;;;14.80;54.20;;;;;;4936372;29;20202;-77
2021/04/09 15:59:32;;;;;;;0.40;0.40;;;14.70;54.20;;;;;;4936414;29;20198;-78
2021/04/09 16:01:59;;;;;;;0.50;0.50;;;14.70;54.30;;;;;;4935055;29;20249;-77
2021/04/09 16:04:27;;;;;;;0.50;0.50;;;14.70;54.30;;;;;;4934914;29;20241;-77
2021/04/09 16:06:56;;;;;;;0.60;0.60;;;14.70;54.70;;;;;;4933747;29;20561;-77
2021/04/09 16:09:26;;;;;;;0.60;0.60;;;14.80;54.70;;;;;;4933950;29;20210;-77
2021/04/09 16:11:54;;;;;;;0.57;0.57;;;14.70;55.00;;;;;;4936118;29;20229;-78
2021/04/09 16:14:21;;;;;;;0.50;0.50;;;15.00;55.40;;;;;;4935869;29;20213;-79
2021/04/09 16:16:47;;;;;;;0.60;0.60;;;14.90;56.00;;;;;;4937387;29;20221;-77
2021/04/09 16:19:19;;;;;;;0.60;0.60;;;14.80;55.40;;;;;;4936784;29;20202;-78
2021/04/09 16:21:46;;;;;;;0.40;0.40;;;14.90;55.40;;;;;;4936653;29;20230;-78
2021/04/09 16:24:16;;;;;;;0.40;0.40;;;14.80;55.70;;;;;;4939193;29;20230;-78
2021/04/09 16:26:44;;;;;;;0.60;0.60;;;14.60;56.50;;;;;;4939138;29;20190;-79
2021/04/09 16:29:12;;;;;;;0.50;0.50;;;14.70;56.60;;;;;;4939360;29;20206;-77
2021/04/09 16:31:39;;;;;;;0.60;0.60;;;14.80;56.50;;;;;;4938771;29;20229;-77
2021/04/09 16:34:06;;;;;;;0.60;0.60;;;14.90;56.50;;;;;;4932608;29;20294;-81
2021/04/09 16:36:33;;;;;;;0.40;0.40;;;14.80;56.10;;;;;;4937014;29;20202;-79
2021/04/09 16:39:01;;;;;;;0.50;0.50;;;14.80;56.00;;;;;;4939645;29;20194;-79
2021/04/09 16:41:28;;;;;;;0.43;0.43;;;14.80;56.40;;;;;;4940140;29;20226;-82
2021/04/09 16:43:55;;;;;;;0.60;0.60;;;14.80;56.60;;;;;;4938477;29;20230;-81
2021/04/09 16:46:23;;;;;;;0.50;0.50;;;14.70;56.70;;;;;;4939953;29;20206;-82
2021/04/09 16:48:50;;;;;;;0.50;0.50;;;14.60;81.80;;;;;;4941808;29;20205;-80
2021/04/09 16:51:18;;;;;;;0.40;0.40;;;14.60;57.10;;;;;;4941189;29;20226;-84
2021/04/09 16:53:45;;;;;;;0.55;0.55;;;14.60;57.10;;;;;;4940384;29;20201;-84
2021/04/09 16:56:12;;;;;;;0.40;0.40;;;14.70;57.60;;;;;;4941996;29;20213;-81
2021/04/09 16:58:39;;;;;;;0.50;0.50;;;14.60;57.60;;;;;;4940716;29;20234;-80
2021/04/09 17:01:06;;;;;;;0.50;0.50;;;14.40;80.60;;;;;;4939318;29;20237;-81
2021/04/09 17:03:36;;;;;;;0.50;0.50;;;14.50;57.60;;;;;;4940357;29;20214;-83
2021/04/09 17:06:03;;;;;;;0.50;0.50;;;14.40;58.10;;;;;;4939678;29;20198;-82
2021/04/09 17:08:30;;;;;;;0.50;0.50;;;14.40;57.80;;;;;;4939508;29;20202;-82
2021/04/09 17:10:57;;;;;;;0.50;0.50;;;14.40;80.00;;;;;;4940545;29;20190;-83
2021/04/09 17:13:24;;;;;;;0.63;0.63;;;14.20;58.30;;;;;;4940246;29;20194;-82
2021/04/09 17:15:53;;;;;;;0.60;0.60;;;14.00;58.20;;;;;;4939461;29;20202;-83
2021/04/09 17:18:29;;;;;;;0.40;0.40;;;14.10;58.40;;;;;;4941337;29;20307;-81
2021/04/09 17:20:56;;;;;;;0.50;0.50;;;14.00;94.70;;;;;;4940834;29;20206;-81